Buzau, Romania
Current Conditions -  °F | °C
As of 1:00 AM on Tuesday 25 Nov 2014 (Local Time) from LRBO Reporting Station
Scattered Clouds Scattered Clouds  
Wind Chill: 22°   Ceiling: Unl
Heat Index: 32°   Visibility: 6mi
Dew Point: 28°   Wind: 14mph
Humidity: 87%   Direction: 30°NNE
Pressure: 30.48"   Gusts: NA
Location:  45.15°N, 26.82°E
Report Text: LRBO 242200Z 03012KT 9999 SCT100 M00/M02 Q1032 BLU BLU
Loading
Personal Weather Stations






























Interactive Weather Map New forecast layout! Learn more

10-Day Weather Forecast

Advertisements
Track Severe Weather on mobile